Terminal Aerodrome Forecast
Issued by NWS Shreveport, LA

Home | Current Version | Previous Version | Text Only | Print | Product List | Glossary On
Versions: 1 2 3 4 5 6 7 8 9 10 11 12 13 14 15 16 17 18 19 20 21 22 23
000
FTUS44 KSHV 290520
TAFGGG
TAF
KGGG 290520Z 2906/3006 11007KT P6SM SCT025 BKN040 BKN060
     FM291000 13008KT P6SM OVC010
     FM291400 14008KT P6SM VCTS OVC020CB
     FM291800 18015G25KT P6SM VCTS BKN040CB
     FM300000 17011KT 4SM -TSRA BR OVC020CB=

USA.gov is the U.S. government's official web portal to all federal, state and local government web resources and services.